Time;durP1;ratioP1;P1;durP2;ratioP2;P2;SDS_P1;SDS_P2;PMS_P1;PMS_P2;Temp;Humidity;BMP_temperature;BMP_pressure;BME280_temperature;BME280_humidity;BME280_pressure;Samples;Min_cycle;Max_cycle;Signal;HPM_P1;HPM_P2
2023/09/17 00:00:29;;;;;;;17.42;15.70;;;;;;;20.29;76.51;101246.16;5026609;28;20147;-70
2023/09/17 00:02:55;;;;;;;17.08;15.48;;;;;;;20.28;76.07;101227.56;5030605;28;20026;-71
2023/09/17 00:05:21;;;;;;;17.40;15.68;;;;;;;20.21;74.51;101235.59;5029943;28;20021;-71
2023/09/17 00:07:46;;;;;;;17.35;15.10;;;;;;;20.19;74.66;101235.03;5029659;28;20079;-68
2023/09/17 00:10:12;;;;;;;16.80;14.75;;;;;;;20.18;75.52;101227.75;5031030;28;20488;-70
2023/09/17 00:12:37;;;;;;;16.45;14.85;;;;;;;20.16;74.18;101224.41;5030877;28;20401;-70
2023/09/17 00:15:03;;;;;;;15.73;13.98;;;;;;;20.14;73.28;101212.59;5029799;28;20022;-70
2023/09/17 00:17:32;;;;;;;14.25;12.70;;;;;;;20.04;72.35;101219.25;5028483;28;20358;-71
2023/09/17 00:19:57;;;;;;;15.23;13.63;;;;;;;20.11;72.72;101214.03;5010848;28;20072;-71
2023/09/17 00:22:22;;;;;;;15.95;13.55;;;;;;;20.10;72.73;101217.19;5027177;28;20464;-71
2023/09/17 00:24:48;;;;;;;13.77;12.38;;;;;;;20.09;72.13;101221.16;5031421;28;20338;-71
2023/09/17 00:27:13;;;;;;;14.10;12.27;;;;;;;20.02;71.78;101226.34;5029734;28;20047;-70
2023/09/17 00:29:38;;;;;;;15.13;12.05;;;;;;;20.05;72.00;101237.00;5031299;28;20095;-70
2023/09/17 00:32:04;;;;;;;13.52;12.10;;;;;;;20.05;71.39;101229.38;5031211;28;20496;-70
2023/09/17 00:34:30;;;;;;;13.50;11.82;;;;;;;20.06;71.94;101235.84;5027004;28;20033;-70
2023/09/17 00:36:55;;;;;;;16.45;12.65;;;;;;;19.96;71.17;101228.38;5030451;28;20461;-70
2023/09/17 00:39:20;;;;;;;12.80;11.50;;;;;;;19.90;69.36;101237.25;5030634;28;20064;-71
2023/09/17 00:41:48;;;;;;;13.35;11.80;;;;;;;19.96;70.85;101225.56;5026294;28;20038;-71
2023/09/17 00:44:15;;;;;;;12.10;10.90;;;;;;;19.90;71.52;101228.78;5011362;28;20026;-71
2023/09/17 00:46:41;;;;;;;13.35;11.63;;;;;;;19.89;71.49;101233.59;5010756;28;20029;-70
2023/09/17 00:49:12;;;;;;;14.27;11.52;;;;;;;19.91;71.20;101225.66;5021104;28;20027;-71
2023/09/17 00:51:38;;;;;;;14.27;11.83;;;;;;;19.85;70.15;101224.09;5030254;28;20452;-71
2023/09/17 00:54:04;;;;;;;12.70;11.35;;;;;;;19.90;70.71;101218.34;5023124;28;20404;-71
2023/09/17 00:56:29;;;;;;;12.70;11.38;;;;;;;19.90;71.34;101217.53;5015376;28;20058;-70
2023/09/17 00:58:56;;;;;;;13.60;11.90;;;;;;;19.81;71.58;101221.03;5015426;28;20044;-70
2023/09/17 01:01:21;;;;;;;13.38;12.02;;;;;;;19.81;71.91;101212.59;5014331;28;20477;-70
2023/09/17 01:03:47;;;;;;;12.98;11.02;;;;;;;19.80;71.58;101212.88;5015205;28;20101;-71
2023/09/17 01:06:13;;;;;;;12.63;11.32;;;;;;;19.82;71.55;101205.81;5014994;28;20469;-71
2023/09/17 01:08:42;;;;;;;13.63;12.27;;;;;;;19.76;71.32;101204.22;5025576;28;20413;-70
2023/09/17 01:11:09;;;;;;;13.18;11.68;;;;;;;19.68;71.92;101199.28;5032165;28;20036;-70
2023/09/17 01:13:39;;;;;;;12.98;11.57;;;;;;;19.61;72.10;101202.50;5034779;28;20029;-70
2023/09/17 01:16:05;;;;;;;13.60;12.20;;;;;;;19.58;72.13;101214.31;5034018;28;20032;-70
2023/09/17 01:18:32;;;;;;;13.75;11.75;;;;;;;19.57;72.56;101208.97;5034537;28;20138;-71
2023/09/17 01:21:10;;;;;;;14.15;12.43;;;;;;;19.56;72.91;101204.50;5033844;28;20119;-71
2023/09/17 01:23:53;;;;;;;14.32;12.82;;;;;;;19.54;72.92;101201.16;5030188;28;20132;-70
2023/09/17 01:26:26;;;;;;;13.75;12.45;;;;;;;19.45;72.92;101188.91;5030544;28;20029;-70
2023/09/17 01:28:54;;;;;;;13.88;12.48;;;;;;;19.45;73.13;101194.53;5032192;28;20040;-70
2023/09/17 01:31:20;;;;;;;15.07;13.60;;;;;;;19.37;72.96;101188.47;5034405;28;20543;-70
2023/09/17 01:33:49;;;;;;;14.18;12.70;;;;;;;19.28;73.64;101189.44;5032694;28;20049;-70
2023/09/17 01:36:20;;;;;;;15.63;12.52;;;;;;;19.32;73.61;101184.88;5032873;28;20087;-71
2023/09/17 01:38:52;;;;;;;16.10;12.70;;;;;;;19.30;73.51;101176.75;5034434;28;20078;-71
2023/09/17 01:41:18;;;;;;;13.73;12.13;;;;;;;19.31;73.68;101188.84;5030583;28;20095;-71
2023/09/17 01:43:45;;;;;;;14.65;13.15;;;;;;;19.28;73.64;101190.28;5014403;28;20050;-71
2023/09/17 01:46:10;;;;;;;13.40;12.00;;;;;;;19.20;73.37;101182.50;5034050;28;20029;-71
2023/09/17 01:48:42;;;;;;;13.93;12.48;;;;;;;19.20;73.68;101182.50;5034213;28;20112;-71
2023/09/17 01:51:09;;;;;;;;;;;;;;;19.37;72.99;101165.09;5033798;28;20029;-71
2023/09/17 01:53:34;;;;;;;14.50;12.98;;;;;;;19.19;73.60;101157.50;5032897;28;19924;-71
2023/09/17 01:56:04;;;;;;;14.57;13.05;;;;;;;19.08;73.60;101160.44;5033923;28;20435;-71
2023/09/17 01:58:30;;;;;;;14.20;12.77;;;;;;;19.07;73.64;101160.75;5024817;28;20103;-71
2023/09/17 02:00:56;;;;;;;15.15;13.55;;;;;;;18.98;73.66;101145.69;5025467;28;20037;-70
2023/09/17 02:03:22;;;;;;;14.57;13.00;;;;;;;19.01;74.05;101150.72;5028377;28;20087;-71
2023/09/17 02:05:47;;;;;;;13.65;12.25;;;;;;;18.99;74.15;101148.22;5033022;28;20021;-70
2023/09/17 02:08:13;;;;;;;14.13;12.80;;;;;;;19.01;74.51;101157.16;5033545;28;20053;-72
2023/09/17 02:10:38;;;;;;;13.98;12.60;;;;;;;18.98;74.61;101162.56;5033034;28;20439;-71
2023/09/17 02:13:03;;;;;;;15.75;13.50;;;;;;;18.97;74.81;101166.53;5033890;28;20025;-70
2023/09/17 02:15:29;;;;;;;13.85;12.43;;;;;;;18.99;75.20;101172.69;5030651;28;20033;-70
2023/09/17 02:17:54;;;;;;;14.30;12.80;;;;;;;18.97;74.81;101170.16;5029778;28;20037;-70
2023/09/17 02:20:20;;;;;;;15.55;13.45;;;;;;;18.93;75.54;101168.25;5033415;28;20061;-71
2023/09/17 02:22:45;;;;;;;15.52;13.25;;;;;;;18.94;75.63;101167.94;5033535;28;20481;-72
2023/09/17 02:25:13;;;;;;;17.05;13.95;;;;;;;18.95;75.76;101164.03;5032603;28;20109;-70
2023/09/17 02:27:39;;;;;;;15.15;13.48;;;;;;;18.95;76.10;101154.75;5031861;28;20073;-70
2023/09/17 02:30:05;;;;;;;15.40;13.80;;;;;;;18.86;76.09;101149.81;5032638;28;20459;-70
2023/09/17 02:32:31;;;;;;;16.55;14.25;;;;;;;18.86;76.92;101154.56;5028045;28;20032;-70
2023/09/17 02:34:56;;;;;;;16.20;14.52;;;;;;;18.79;76.87;101140.88;5033180;28;20025;-71
2023/09/17 02:37:22;;;;;;;16.33;14.63;;;;;;;18.78;77.04;101144.81;5033339;28;20420;-71
2023/09/17 02:39:48;;;;;;;17.25;15.45;;;;;;;18.77;77.48;101133.88;5032334;28;20048;-71
2023/09/17 02:42:13;;;;;;;18.50;16.60;;;;;;;18.70;77.23;101136.19;5033015;28;20025;-70
2023/09/17 02:44:44;;;;;;;17.17;15.48;;;;;;;18.68;77.44;101133.69;5033265;28;20033;-71
2023/09/17 02:47:10;;;;;;;17.38;15.57;;;;;;;18.65;77.34;101131.47;5030801;28;20110;-71
2023/09/17 02:49:35;;;;;;;18.13;15.75;;;;;;;18.67;77.53;101123.59;5029607;28;20803;-71
2023/09/17 02:52:01;;;;;;;17.15;15.45;;;;;;;18.70;77.40;101120.19;5032557;28;20036;-71
2023/09/17 02:54:27;;;;;;;17.77;16.05;;;;;;;18.74;77.38;101128.84;5035637;28;20033;-70
2023/09/17 02:56:53;;;;;;;16.88;15.10;;;;;;;18.69;77.42;101120.47;5034444;28;20583;-71
2023/09/17 02:59:18;;;;;;;17.42;15.65;;;;;;;18.69;77.14;101129.72;5032095;28;20120;-71
2023/09/17 03:01:43;;;;;;;17.75;16.00;;;;;;;18.60;76.91;101129.56;5028867;28;20091;-71
2023/09/17 03:04:08;;;;;;;19.48;16.40;;;;;;;18.53;77.02;101123.47;5032773;28;20029;-71
2023/09/17 03:06:37;;;;;;;19.15;17.08;;;;;;;18.56;77.31;101127.66;5032652;28;20483;-71
2023/09/17 03:09:07;;;;;;;17.92;16.05;;;;;;;18.51;76.85;101130.50;5030820;28;20076;-71
2023/09/17 03:11:32;;;;;;;19.83;15.40;;;;;;;18.52;76.95;101121.81;5029951;28;20064;-70
2023/09/17 03:13:58;;;;;;;19.17;16.42;;;;;;;18.47;77.17;101123.81;5015148;28;20057;-70
2023/09/17 03:16:23;;;;;;;17.50;15.75;;;;;;;18.51;77.06;101113.66;5012426;28;20029;-70
2023/09/17 03:18:49;;;;;;;17.90;16.00;;;;;;;18.54;76.69;101111.06;5013710;28;20133;-71
2023/09/17 03:21:14;;;;;;;20.75;15.57;;;;;;;18.55;76.35;101114.72;5029836;28;20871;-70
2023/09/17 03:23:40;;;;;;;17.08;15.38;;;;;;;18.55;76.25;101123.16;5030495;28;20074;-70
2023/09/17 03:26:05;;;;;;;17.67;15.85;;;;;;;18.50;75.97;101135.31;5030249;28;20137;-70
2023/09/17 03:28:31;;;;;;;17.70;15.90;;;;;;;18.50;76.08;101131.66;5012146;28;20033;-70
2023/09/17 03:30:56;;;;;;;17.13;15.32;;;;;;;18.49;75.80;101127.19;5016274;28;20026;-70
2023/09/17 03:33:24;;;;;;;18.02;16.10;;;;;;;18.46;76.40;101127.78;5015044;28;20384;-71
2023/09/17 03:35:51;;;;;;;17.63;15.68;;;;;;;18.44;75.67;101125.28;5014346;28;20554;-71
2023/09/17 03:38:19;;;;;;;16.88;15.18;;;;;;;18.40;75.66;101130.66;5014212;28;20526;-70
2023/09/17 03:40:45;;;;;;;18.70;16.27;;;;;;;18.33;75.96;101126.53;5032421;28;20082;-70
2023/09/17 03:43:10;;;;;;;17.10;15.38;;;;;;;18.35;75.96;101129.84;5030679;28;20021;-70
2023/09/17 03:45:35;;;;;;;17.63;15.98;;;;;;;18.33;74.89;101121.75;5030926;28;20030;-71
2023/09/17 03:48:01;;;;;;;17.13;15.45;;;;;;;18.35;76.00;101130.72;5029875;28;20028;-71
2023/09/17 03:50:30;;;;;;;17.55;15.75;;;;;;;18.38;75.69;101127.28;5029733;28;20071;-70
2023/09/17 03:52:58;;;;;;;18.05;16.17;;;;;;;18.37;75.94;101125.63;5030754;28;20026;-70
2023/09/17 03:55:24;;;;;;;17.67;15.90;;;;;;;18.35;76.14;101125.09;5031833;28;20107;-70
2023/09/17 03:57:55;;;;;;;16.85;15.25;;;;;;;18.38;76.36;101126.47;5029333;28;20073;-70
2023/09/17 04:00:23;;;;;;;18.48;16.48;;;;;;;18.36;75.72;101123.97;5030675;28;20021;-70
2023/09/17 04:02:49;;;;;;;17.65;15.88;;;;;;;18.35;76.06;101127.91;5028966;28;20037;-70
2023/09/17 04:05:21;;;;;;;18.63;16.58;;;;;;;18.31;76.45;101118.41;5017054;28;20105;-70
2023/09/17 04:07:47;;;;;;;17.65;15.85;;;;;;;18.35;76.36;101130.72;5011930;28;20022;-70
2023/09/17 04:10:14;;;;;;;18.88;16.98;;;;;;;18.32;76.24;101125.69;5017097;28;20025;-71
2023/09/17 04:12:41;;;;;;;18.83;16.92;;;;;;;18.33;76.16;101127.38;5030369;28;20052;-71
2023/09/17 04:15:12;;;;;;;18.88;16.88;;;;;;;18.32;76.50;101122.88;5031350;28;20072;-70
2023/09/17 04:17:39;;;;;;;18.10;16.33;;;;;;;18.33;76.73;101124.56;5030794;28;20030;-71
2023/09/17 04:20:11;;;;;;;19.92;17.92;;;;;;;18.27;76.96;101120.09;5027852;28;20112;-70
2023/09/17 04:22:36;;;;;;;;;;;;;;;18.47;75.79;101124.69;5011917;28;20029;-70
2023/09/17 04:25:09;;;;;;;18.58;16.67;;;;;;;18.37;76.75;101120.00;5029682;28;19928;-71
2023/09/17 04:27:34;;;;;;;19.50;17.60;;;;;;;18.33;76.42;101112.47;5029868;28;20021;-70
2023/09/17 04:30:00;;;;;;;18.42;16.70;;;;;;;18.29;77.05;101112.22;5029695;28;20033;-70
2023/09/17 04:32:25;;;;;;;19.48;17.55;;;;;;;18.29;76.99;101117.84;5029721;28;20029;-70
2023/09/17 04:34:52;;;;;;;18.63;16.73;;;;;;;18.24;77.11;101115.13;5030813;28;20033;-70
2023/09/17 04:37:21;;;;;;;21.10;17.98;;;;;;;18.18;77.56;101116.28;5029076;28;20048;-71
2023/09/17 04:39:48;;;;;;;21.25;19.13;;;;;;;18.17;77.63;101120.25;5021895;28;20025;-71
2023/09/17 04:42:17;;;;;;;19.75;17.95;;;;;;;18.14;78.10;101115.22;5030642;28;20029;-71
2023/09/17 04:44:42;;;;;;;20.70;18.60;;;;;;;18.15;78.26;101114.06;5011324;28;20476;-70
2023/09/17 04:47:07;;;;;;;19.63;17.73;;;;;;;18.15;77.94;101112.09;5010580;28;20033;-70
2023/09/17 04:49:33;;;;;;;20.20;18.05;;;;;;;18.19;78.04;101112.34;5011496;28;20041;-70
2023/09/17 04:51:59;;;;;;;20.40;18.35;;;;;;;18.21;77.82;101104.47;5021851;28;20041;-70
2023/09/17 04:54:24;;;;;;;21.35;19.17;;;;;;;18.19;77.82;101101.09;5023020;28;20033;-66
2023/09/17 04:56:49;;;;;;;20.85;18.88;;;;;;;18.13;78.05;101111.56;5017965;28;20037;-70
2023/09/17 04:59:15;;;;;;;22.65;18.25;;;;;;;18.12;77.76;101109.06;5029288;28;20029;-70
2023/09/17 05:01:41;;;;;;;21.33;19.10;;;;;;;18.14;78.52;101104.81;5023382;28;20072;-70
2023/09/17 05:04:07;;;;;;;20.63;18.63;;;;;;;18.16;78.35;101101.72;5028927;28;20025;-70
2023/09/17 05:06:32;;;;;;;21.85;19.58;;;;;;;18.21;77.99;101104.47;5022257;28;20029;-70
2023/09/17 05:08:57;;;;;;;22.30;20.10;;;;;;;18.17;78.44;101096.94;5010722;28;20037;-70
2023/09/17 05:11:28;;;;;;;20.80;18.70;;;;;;;18.19;78.67;101111.50;5020672;28;20473;-71
2023/09/17 05:13:54;;;;;;;22.50;20.30;;;;;;;18.13;79.15;101108.75;5028430;28;20026;-70
2023/09/17 05:16:19;;;;;;;22.77;20.25;;;;;;;18.17;79.17;101117.44;5028376;28;20034;-71
2023/09/17 05:18:44;;;;;;;21.98;19.88;;;;;;;18.17;79.10;101109.00;5030905;28;20029;-70
2023/09/17 05:21:10;;;;;;;22.75;20.45;;;;;;;18.13;79.61;101116.34;5027216;28;20128;-70
2023/09/17 05:23:35;;;;;;;21.27;19.30;;;;;;;18.15;79.57;101114.06;5023966;28;20161;-70
2023/09/17 05:26:01;;;;;;;23.48;21.08;;;;;;;18.17;79.53;101114.63;5026482;28;20108;-70
2023/09/17 05:28:26;;;;;;;23.45;21.20;;;;;;;18.20;79.03;101114.03;5029930;28;20022;-71
2023/09/17 05:30:56;;;;;;;25.48;21.33;;;;;;;18.15;79.43;101123.34;5030013;28;20540;-70
2023/09/17 05:33:22;;;;;;;23.40;21.05;;;;;;;18.19;79.47;101120.75;5028903;28;20025;-70
2023/09/17 05:35:47;;;;;;;24.00;21.52;;;;;;;18.13;79.85;101119.16;5028249;28;20034;-70
2023/09/17 05:38:13;;;;;;;24.23;21.73;;;;;;;18.16;79.65;101118.56;5030677;28;20025;-71
2023/09/17 05:40:38;;;;;;;23.90;21.55;;;;;;;18.11;80.25;101119.44;5031973;28;20126;-70
2023/09/17 05:43:03;;;;;;;23.67;21.17;;;;;;;18.16;79.95;101124.19;5023234;28;20028;-70
2023/09/17 05:45:29;;;;;;;24.48;21.98;;;;;;;18.11;80.04;101127.03;5034246;28;20084;-70
2023/09/17 05:47:54;;;;;;;23.35;21.10;;;;;;;18.17;79.98;101122.22;5032560;28;20041;-70
2023/09/17 05:50:19;;;;;;;26.00;22.45;;;;;;;18.10;80.42;101125.38;5032611;28;20048;-70
2023/09/17 05:52:45;;;;;;;22.88;20.73;;;;;;;18.12;80.35;101118.34;5033182;28;20029;-70
2023/09/17 05:55:10;;;;;;;24.38;21.98;;;;;;;18.09;80.60;101118.09;5031425;28;20030;-70
2023/09/17 05:57:38;;;;;;;23.52;21.02;;;;;;;18.15;80.32;101116.88;5027973;28;20112;-70
2023/09/17 06:00:04;;;;;;;22.63;20.23;;;;;;;18.11;80.64;101118.59;5032851;28;20079;-70
2023/09/17 06:02:29;;;;;;;25.05;22.60;;;;;;;18.09;80.72;101113.31;5032663;28;20033;-71
2023/09/17 06:04:55;;;;;;;24.70;22.38;;;;;;;18.11;80.68;101116.63;5031908;28;20465;-70
2023/09/17 06:07:20;;;;;;;23.88;21.52;;;;;;;18.11;81.07;101118.59;5032830;28;20112;-71
2023/09/17 06:09:48;;;;;;;24.60;22.20;;;;;;;18.14;81.00;101115.22;5028603;28;20052;-71
2023/09/17 06:12:15;;;;;;;23.60;21.17;;;;;;;18.17;80.72;101111.81;5032069;28;20032;-71
2023/09/17 06:14:41;;;;;;;23.52;21.33;;;;;;;18.17;80.38;101119.41;5031912;28;20037;-70
2023/09/17 06:17:06;;;;;;;24.00;21.48;;;;;;;18.18;80.66;101116.28;5017452;28;20037;-70
2023/09/17 06:19:33;;;;;;;23.33;21.00;;;;;;;18.21;80.41;101124.13;5031971;28;20033;-70
2023/09/17 06:21:58;;;;;;;24.25;21.98;;;;;;;18.16;80.60;101121.38;5032654;28;20388;-71
2023/09/17 06:24:24;;;;;;;23.40;21.17;;;;;;;18.16;81.42;101124.19;5032598;28;20021;-70
2023/09/17 06:26:52;;;;;;;23.95;21.70;;;;;;;18.11;81.49;101115.81;5030697;28;20048;-70
2023/09/17 06:29:17;;;;;;;24.38;22.05;;;;;;;18.13;81.25;101120.00;5013803;28;20026;-71
2023/09/17 06:31:43;;;;;;;24.17;21.88;;;;;;;18.09;81.48;101121.72;5019803;28;20206;-70
2023/09/17 06:34:12;;;;;;;25.65;23.05;;;;;;;18.12;81.31;101123.13;5030683;28;20030;-70
2023/09/17 06:36:38;;;;;;;25.70;23.13;;;;;;;18.14;81.55;101118.03;5031581;28;20428;-71
2023/09/17 06:39:05;;;;;;;24.95;22.58;;;;;;;18.09;82.06;101115.28;5029493;28;20021;-65
2023/09/17 06:41:31;;;;;;;25.50;23.10;;;;;;;18.10;81.73;101126.19;5027738;28;20044;-68
2023/09/17 06:43:57;;;;;;;26.15;23.63;;;;;;;18.08;82.10;101122.88;5025536;28;20103;-68
2023/09/17 06:46:23;;;;;;;25.65;23.15;;;;;;;18.11;82.11;101115.81;5028832;28;20481;-69
2023/09/17 06:48:49;;;;;;;26.33;23.70;;;;;;;18.12;82.00;101117.50;5029683;28;20055;-69
2023/09/17 06:51:15;;;;;;;26.05;23.55;;;;;;;18.14;82.19;101120.84;5045744;28;20488;-68
2023/09/17 06:53:43;;;;;;;26.13;23.48;;;;;;;18.14;82.41;101121.66;5021391;28;20048;-70
2023/09/17 06:56:08;;;;;;;26.42;23.83;;;;;;;18.16;82.45;101115.75;5020880;28;20030;-68
2023/09/17 06:58:35;;;;;;;26.17;23.60;;;;;;;18.15;82.55;101116.88;5028707;28;20033;-70
2023/09/17 07:01:03;;;;;;;27.58;24.98;;;;;;;18.18;82.98;101113.47;5026709;28;20433;-70
2023/09/17 07:03:28;;;;;;;26.67;24.13;;;;;;;18.19;83.09;101117.97;5012390;28;20088;-69
2023/09/17 07:05:54;;;;;;;28.52;25.42;;;;;;;18.20;83.40;101121.63;5010612;28;20025;-66
2023/09/17 07:08:19;;;;;;;28.65;25.88;;;;;;;18.19;83.44;101119.94;5028156;28;20136;-66
2023/09/17 07:10:45;;;;;;;28.02;25.02;;;;;;;18.23;83.22;101126.63;5025372;28;20037;-66
2023/09/17 07:13:11;;;;;;;27.88;25.17;;;;;;;18.22;83.39;101124.97;5029997;28;20365;-66
2023/09/17 07:15:36;;;;;;;28.30;25.48;;;;;;;18.24;83.48;101120.72;5012618;28;20061;-65
2023/09/17 07:18:02;;;;;;;30.25;27.25;;;;;;;18.21;83.81;101121.31;5017670;28;20456;-68
2023/09/17 07:20:27;;;;;;;29.50;26.60;;;;;;;18.23;84.17;101123.81;5018376;28;20034;-67
2023/09/17 07:22:53;;;;;;;28.50;25.80;;;;;;;18.24;84.01;101115.13;5024354;28;20044;-68
2023/09/17 07:25:18;;;;;;;29.50;26.50;;;;;;;18.22;84.30;101114.56;5022756;28;20488;-63
2023/09/17 07:27:43;;;;;;;29.48;26.73;;;;;;;18.29;84.33;101109.44;5024554;28;20056;-72
2023/09/17 07:30:09;;;;;;;29.15;26.25;;;;;;;18.29;84.55;101103.81;5031635;28;20034;-71
2023/09/17 07:32:36;;;;;;;30.80;27.85;;;;;;;18.29;84.98;101105.78;5021036;28;20095;-68
2023/09/17 07:35:02;;;;;;;31.00;27.73;;;;;;;18.32;85.17;101114.44;5012338;28;20030;-72
2023/09/17 07:37:28;;;;;;;30.25;27.17;;;;;;;18.38;85.03;101106.78;5014840;28;20040;-69
2023/09/17 07:40:01;;;;;;;30.35;27.35;;;;;;;18.34;85.46;101108.53;5013286;28;20030;-70
2023/09/17 07:42:27;;;;;;;29.48;26.48;;;;;;;18.39;85.14;101105.63;5011882;28;20033;-70
2023/09/17 07:44:52;;;;;;;31.13;28.13;;;;;;;18.38;85.70;101110.44;5012577;28;20029;-70
2023/09/17 07:47:18;;;;;;;33.28;30.08;;;;;;;18.37;86.33;101107.94;5022429;28;20049;-71
2023/09/17 07:49:43;;;;;;;33.08;29.63;;;;;;;18.37;86.87;101103.16;5023764;28;20037;-70
2023/09/17 07:52:09;;;;;;;33.08;29.73;;;;;;;18.40;86.95;101107.34;5024466;28;20048;-70
2023/09/17 07:54:47;;;;;;;32.53;29.42;;;;;;;18.46;86.51;101110.91;5027708;28;20037;-70
2023/09/17 07:57:13;;;;;;;35.10;31.60;;;;;;;18.43;87.47;101114.31;5022890;28;20029;-70
2023/09/17 07:59:38;;;;;;;33.85;30.55;;;;;;;18.45;87.41;101121.31;5019661;28;20579;-70
2023/09/17 08:02:04;;;;;;;34.25;30.88;;;;;;;18.46;87.71;101122.16;5024219;28;20037;-70
2023/09/17 08:04:29;;;;;;;34.35;31.08;;;;;;;18.51;87.39;101125.75;5011745;28;20116;-69
2023/09/17 08:06:56;;;;;;;34.22;30.77;;;;;;;18.53;87.22;101131.06;5026511;28;20087;-70
2023/09/17 08:09:22;;;;;;;37.20;33.60;;;;;;;18.50;88.05;101129.69;5014227;28;20045;-70
2023/09/17 08:11:48;;;;;;;37.97;34.33;;;;;;;18.51;88.17;101120.13;5027238;28;20056;-70
2023/09/17 08:14:14;;;;;;;38.33;34.60;;;;;;;18.54;88.21;101132.72;5027889;28;20120;-69
2023/09/17 08:16:40;;;;;;;37.88;33.90;;;;;;;18.54;88.27;101138.34;5019914;28;20220;-69
2023/09/17 08:19:05;;;;;;;38.33;34.30;;;;;;;18.51;88.51;101136.13;5027618;28;20025;-70
2023/09/17 08:21:30;;;;;;;37.97;34.28;;;;;;;18.54;88.12;101142.00;5025309;28;20473;-70
2023/09/17 08:23:58;;;;;;;37.75;34.08;;;;;;;18.54;88.43;101142.00;5027715;28;20034;-69
2023/09/17 08:26:27;;;;;;;39.35;35.08;;;;;;;18.55;88.82;101140.88;5026426;28;20029;-69
2023/09/17 08:28:55;;;;;;;36.92;33.35;;;;;;;18.58;88.58;101145.88;5020489;28;20040;-71
2023/09/17 08:31:28;;;;;;;37.83;34.13;;;;;;;18.55;89.08;101138.06;5020185;28;20515;-70
2023/09/17 08:33:54;;;;;;;38.58;34.65;;;;;;;18.57;88.91;101134.94;5025089;28;20657;-70
2023/09/17 08:36:23;;;;;;;36.40;32.67;;;;;;;18.60;88.62;101131.53;5012821;28;20108;-71
2023/09/17 08:38:49;;;;;;;39.67;35.17;;;;;;;18.60;89.20;101131.53;5024370;28;20021;-71
2023/09/17 08:41:24;;;;;;;38.42;34.63;;;;;;;18.62;89.29;101130.09;5026115;28;20041;-70
2023/09/17 08:43:52;;;;;;;39.97;35.72;;;;;;;18.63;89.81;101133.75;5025951;28;20117;-70
2023/09/17 08:46:18;;;;;;;42.05;37.25;;;;;;;18.64;89.54;101136.25;5019181;28;20038;-69
2023/09/17 08:48:43;;;;;;;42.67;38.25;;;;;;;18.68;89.48;101127.22;5029795;28;20392;-69
2023/09/17 08:51:11;;;;;;;42.10;37.53;;;;;;;18.69;89.53;101131.72;5026274;28;20082;-69
2023/09/17 08:53:43;;;;;;;43.80;39.08;;;;;;;18.69;90.07;101146.59;5022202;28;20132;-69
2023/09/17 08:56:13;;;;;;;40.90;36.58;;;;;;;18.74;89.00;101156.97;5030263;28;20042;-68
2023/09/17 08:58:43;;;;;;;43.60;39.00;;;;;;;18.73;89.44;101146.88;5029119;28;20550;-69
2023/09/17 09:01:13;;;;;;;39.97;35.92;;;;;;;18.77;89.37;101157.22;5030098;28;20544;-68
2023/09/17 09:03:40;;;;;;;50.83;38.03;;;;;;;18.79;90.11;101148.50;5027190;28;20079;-71
2023/09/17 09:06:09;;;;;;;44.45;39.63;;;;;;;18.77;90.13;101157.22;5026889;28;20469;-71
2023/09/17 09:08:35;;;;;;;43.53;38.85;;;;;;;18.79;90.04;101166.19;5028224;28;20042;-71
2023/09/17 09:11:01;;;;;;;43.90;39.33;;;;;;;18.81;90.21;101158.28;5029332;28;20125;-72
2023/09/17 09:13:28;;;;;;;45.83;38.90;;;;;;;18.80;90.28;101165.06;5031231;28;20022;-71
2023/09/17 09:15:54;;;;;;;44.28;38.45;;;;;;;18.82;89.82;101171.22;5031855;28;20025;-70
2023/09/17 09:18:19;;;;;;;51.90;42.45;;;;;;;18.84;90.42;101173.72;5033016;28;20477;-71
2023/09/17 09:20:45;;;;;;;47.00;41.50;;;;;;;18.84;90.24;101173.72;5032318;28;20125;-71
2023/09/17 09:23:10;;;;;;;54.17;43.05;;;;;;;18.87;90.24;101173.97;5028198;28;20044;-72
2023/09/17 09:25:35;;;;;;;49.65;42.92;;;;;;;18.86;90.14;101165.81;5033477;28;20515;-71
2023/09/17 09:28:01;;;;;;;50.47;41.63;;;;;;;18.87;89.97;101164.69;5020032;28;20060;-70
2023/09/17 09:30:30;;;;;;;52.75;42.88;;;;;;;18.87;90.09;101162.72;5033455;28;20033;-72
2023/09/17 09:32:59;;;;;;;51.85;41.55;;;;;;;18.86;90.12;101163.88;5029954;28;20380;-72
2023/09/17 09:35:25;;;;;;;47.83;39.67;;;;;;;18.88;89.68;101166.38;5022507;28;20036;-72
2023/09/17 09:37:53;;;;;;;51.70;40.88;;;;;;;18.85;90.13;101152.91;5027103;28;20085;-72
2023/09/17 09:40:21;;;;;;;49.92;40.42;;;;;;;18.85;90.04;101158.53;5013482;28;20040;-73
2023/09/17 09:42:48;;;;;;;50.88;39.95;;;;;;;18.87;90.20;101151.47;5019377;28;20528;-72
2023/09/17 09:45:16;;;;;;;47.05;39.78;;;;;;;18.86;90.27;101146.13;5015486;28;20021;-70
2023/09/17 09:47:49;;;;;;;49.78;40.35;;;;;;;18.84;90.89;101146.44;5016140;28;20124;-72
2023/09/17 09:50:24;;;;;;;50.33;41.17;;;;;;;18.85;90.40;101152.91;5013402;28;20025;-71
2023/09/17 09:52:50;;;;;;;50.70;40.97;;;;;;;18.86;90.11;101158.25;5012808;28;20583;-72
2023/09/17 09:55:15;;;;;;;51.85;42.08;;;;;;;18.83;90.72;101156.03;5030277;28;20025;-70
2023/09/17 09:57:41;;;;;;;51.40;41.55;;;;;;;18.83;90.93;101153.22;5033161;28;20018;-72
2023/09/17 10:00:12;;;;;;;53.45;43.33;;;;;;;18.84;91.26;101149.25;5031114;28;20048;-72
2023/09/17 10:02:38;;;;;;;49.60;41.10;;;;;;;18.85;91.29;101147.28;5032240;28;20531;-71
2023/09/17 10:05:04;;;;;;;52.33;42.33;;;;;;;18.88;91.78;101146.69;5032316;28;20030;-67
2023/09/17 10:07:30;;;;;;;50.88;42.70;;;;;;;18.89;92.38;101152.00;5021603;28;20064;-65
2023/09/17 10:09:57;;;;;;;51.58;41.63;;;;;;;18.91;92.82;101150.88;5025335;28;20046;-65
2023/09/17 10:12:22;;;;;;;53.75;41.95;;;;;;;18.92;92.94;101152.53;5031810;28;20033;-65
2023/09/17 10:14:48;;;;;;;53.60;41.75;;;;;;;18.94;92.85;101150.25;5031128;28;20033;-65
2023/09/17 10:17:16;;;;;;;52.20;40.33;;;;;;;18.99;92.50;101141.75;5029902;28;20022;-65
2023/09/17 10:19:43;;;;;;;54.22;42.08;;;;;;;18.99;93.13;101133.31;5031698;28;20421;-65
2023/09/17 10:22:10;;;;;;;53.72;42.45;;;;;;;19.05;93.37;101137.72;5032710;28;20033;-65
2023/09/17 10:24:40;;;;;;;54.05;41.90;;;;;;;19.08;93.78;101137.13;5030771;28;20035;-65
2023/09/17 10:27:06;;;;;;;48.38;40.55;;;;;;;19.11;93.59;101130.88;5028467;28;20783;-65
2023/09/17 10:29:34;;;;;;;52.30;41.03;;;;;;;19.16;93.84;101128.00;5028228;28;20386;-72
2023/09/17 10:32:01;;;;;;;50.85;39.60;;;;;;;19.22;93.56;101131.56;5029686;28;20029;-70
2023/09/17 10:34:28;;;;;;;52.13;39.70;;;;;;;19.24;94.10;101126.47;5029527;28;20119;-72
2023/09/17 10:36:54;;;;;;;51.50;38.83;;;;;;;19.27;94.65;101134.31;5028486;28;20034;-72
2023/09/17 10:39:22;;;;;;;50.75;37.70;;;;;;;19.26;93.76;101133.47;5025664;28;20112;-71
2023/09/17 10:41:51;;;;;;;48.80;38.60;;;;;;;19.28;94.31;101136.81;5032611;28;20034;-70
2023/09/17 10:44:21;;;;;;;47.88;37.50;;;;;;;19.29;94.11;101130.03;5029024;28;20030;-69
2023/09/17 10:46:48;;;;;;;41.90;35.83;;;;;;;19.33;93.63;101124.63;5029003;28;20029;-70
2023/09/17 10:49:16;;;;;;;50.97;38.55;;;;;;;19.36;94.50;101124.84;5030690;28;20063;-69
2023/09/17 10:51:44;;;;;;;45.13;36.90;;;;;;;19.35;93.80;101123.19;5027688;28;20031;-70
2023/09/17 10:54:10;;;;;;;45.75;36.88;;;;;;;19.37;94.23;101123.72;5032216;28;20037;-70
2023/09/17 10:56:36;;;;;;;49.13;36.35;;;;;;;19.41;94.90;101120.28;5026619;28;20026;-71
2023/09/17 10:59:04;;;;;;;47.10;38.55;;;;;;;19.45;94.83;101122.16;5025283;28;20029;-71
2023/09/17 11:01:32;;;;;;;45.60;37.88;;;;;;;19.50;94.90;101118.47;5025752;28;20033;-70
2023/09/17 11:04:02;;;;;;;48.95;38.42;;;;;;;19.53;95.04;101121.50;5023849;28;20056;-70
2023/09/17 11:06:31;;;;;;;47.42;38.45;;;;;;;19.57;95.35;101128.19;5030607;28;20492;-70